KHGR/HGR METAR and TAF weather

Enter ICAO airport designator
Station Type Date Time Source
KHGR METAR 2020/01/23 05:53 UTC NOAA

KHGR 230553Z AUTO 05004KT 10SM CLR M03/M10 A3039 RMK AO2 SLP310 T10331100 10000 21033 58006


Station Type Date Time Source
KHGR Decoded METAR 2020/01/23 05:53 UTC NOAA

HAGERSTOWN REGIONAL AIRPORT, MD, United States (KHGR) 39-42N 077-44W 224M
Jan 23, 2020 - 12:53 AM EST / 2020.01.23 0553 UTC
Wind: from the NE (050 degrees) at 5 MPH (4 KT):0
Visibility: 10 mile(s):0
Sky conditions: clear
Temperature: 26.1 F (-3.3 C)
Windchill: 19 F (-7 C):1
Dew Point: 14.0 F (-10.0 C)
Relative Humidity: 59%
Pressure (altimeter): 30.39 in. Hg (1029 hPa)
Pressure tendency: 0.02 inches (0.6 hPa) lower than three hours ago
ob: KHGR 230553Z AUTO 05004KT 10SM CLR M03/M10 A3039 RMK AO2 SLP310 T10331100 10000 21033 58006
cycle: 6

Station Type Date Time Source
KHGR TAF UTC NOAA

Error!

Example: see airport list